createdAt,value
2023-01-29T00:04:04.365Z,75
2023-01-29T00:09:03.846Z,75
2023-01-29T00:14:03.680Z,75
2023-01-29T00:19:02.895Z,76
2023-01-29T00:24:00.525Z,76
2023-01-29T00:28:59.985Z,76
2023-01-29T00:34:00.746Z,76
2023-01-29T00:38:59.957Z,76
2023-01-29T00:43:59.388Z,76
2023-01-29T00:49:01.477Z,76
2023-01-29T00:53:58.772Z,76
2023-01-29T00:58:45.211Z,76
2023-01-29T01:00:06.830Z,76
2023-01-29T01:05:06.339Z,76
2023-01-29T01:10:06.493Z,76
2023-01-29T01:15:05.770Z,76
2023-01-29T01:20:05.284Z,76
2023-01-29T01:25:04.715Z,76
2023-01-29T01:30:05.407Z,75
2023-01-29T01:35:04.543Z,76
2023-01-29T01:40:04.804Z,76
2023-01-29T01:45:03.916Z,76
2023-01-29T01:50:04.011Z,76
2023-01-29T01:55:21.718Z,76
2023-01-29T01:59:41.503Z,76
2023-01-29T02:04:41.552Z,76
2023-01-29T02:09:41.364Z,77
2023-01-29T02:14:41.199Z,77
2023-01-29T02:19:40.515Z,77
2023-01-29T02:24:40.195Z,77
2023-01-29T02:29:39.305Z,77
2023-01-29T02:34:36.756Z,77
2023-01-29T02:39:36.582Z,77
2023-01-29T02:44:36.789Z,77
2023-01-29T02:49:36.427Z,77
2023-01-29T02:54:35.522Z,77
2023-01-29T02:59:03.762Z,77
2023-01-29T03:04:03.337Z,77
2023-01-29T03:09:02.968Z,77
2023-01-29T03:14:01.612Z,77
2023-01-29T03:19:01.707Z,77
2023-01-29T03:24:01.145Z,77
2023-01-29T03:29:02.157Z,77
2023-01-29T03:33:58.283Z,77
2023-01-29T03:38:57.997Z,77
2023-01-29T03:43:57.207Z,77
2023-01-29T03:48:57.457Z,77
2023-01-29T03:53:55.141Z,78
2023-01-29T03:58:55.132Z,78
2023-01-29T04:03:54.874Z,79
2023-01-29T04:08:56.031Z,79
2023-01-29T04:13:53.254Z,78
2023-01-29T04:18:52.316Z,78
2023-01-29T04:23:51.844Z,78
2023-01-29T04:28:51.525Z,78
2023-01-29T04:33:48.654Z,78
2023-01-29T04:38:48.792Z,78
2023-01-29T04:43:47.716Z,78
2023-01-29T04:48:47.530Z,78
2023-01-29T04:53:45.756Z,78
2023-01-29T04:58:46.071Z,78
2023-01-29T05:03:45.267Z,78
2023-01-29T05:08:44.112Z,78
2023-01-29T05:13:43.607Z,78
2023-01-29T05:18:43.874Z,78
2023-01-29T05:23:43.001Z,78
2023-01-29T05:28:43.765Z,78
2023-01-29T05:33:43.022Z,78
2023-01-29T05:38:42.920Z,77
2023-01-29T05:43:43.617Z,77
2023-01-29T05:48:39.738Z,78
2023-01-29T05:53:39.983Z,78
2023-01-29T05:58:38.951Z,79
2023-01-29T06:00:01.409Z,79
2023-01-29T06:04:58.894Z,79
2023-01-29T06:09:58.630Z,79
2023-01-29T06:14:58.679Z,79
2023-01-29T06:19:58.002Z,80
2023-01-29T06:24:57.707Z,79
2023-01-29T06:29:56.760Z,79
2023-01-29T06:34:57.064Z,79
2023-01-29T06:39:56.303Z,79
2023-01-29T06:44:55.037Z,78
2023-01-29T06:49:55.323Z,78
2023-01-29T06:54:54.806Z,78
2023-01-29T06:59:23.708Z,78
2023-01-29T07:04:24.384Z,78
2023-01-29T07:09:23.953Z,79
2023-01-29T07:14:25.424Z,79
2023-01-29T07:19:22.285Z,80
2023-01-29T07:24:22.458Z,80
2023-01-29T07:29:23.733Z,80
2023-01-29T07:34:20.449Z,80
2023-01-29T07:39:20.709Z,80
2023-01-29T07:44:20.188Z,79
2023-01-29T07:49:07.702Z,79
2023-01-29T07:54:07.955Z,79
2023-01-29T07:58:53.495Z,78
2023-01-29T08:03:53.381Z,78
2023-01-29T08:08:53.474Z,77
2023-01-29T08:13:52.477Z,77
2023-01-29T08:18:52.671Z,77
2023-01-29T08:23:52.917Z,76
2023-01-29T08:28:51.316Z,76
2023-01-29T08:33:54.288Z,75
2023-01-29T08:38:51.989Z,75
2023-01-29T08:43:49.314Z,75
2023-01-29T08:48:49.228Z,74
2023-01-29T08:53:48.274Z,74
2023-01-29T08:58:48.023Z,74
2023-01-29T09:03:47.047Z,73
2023-01-29T09:08:46.736Z,73
2023-01-29T09:13:47.003Z,73
2023-01-29T09:18:46.348Z,73
2023-01-29T09:23:47.873Z,72
2023-01-29T09:28:44.201Z,71
2023-01-29T09:33:44.412Z,70
2023-01-29T09:38:43.240Z,70
2023-01-29T09:43:43.494Z,69
2023-01-29T09:48:48.791Z,68
2023-01-29T09:53:40.714Z,68
2023-01-29T09:58:40.109Z,67
2023-01-29T10:00:01.400Z,67
2023-01-29T10:05:00.821Z,68
2023-01-29T10:09:59.902Z,67
2023-01-29T10:15:00.220Z,67
2023-01-29T10:19:59.226Z,66
2023-01-29T10:24:59.308Z,66
2023-01-29T10:29:56.649Z,66
2023-01-29T10:34:56.764Z,66
2023-01-29T10:39:57.192Z,68
2023-01-29T10:44:56.617Z,67
2023-01-29T10:49:55.647Z,66
2023-01-29T10:54:55.334Z,67
2023-01-29T10:59:15.392Z,69
2023-01-29T11:04:15.309Z,68
2023-01-29T11:09:16.150Z,66
2023-01-29T11:14:23.269Z,67
2023-01-29T11:19:23.573Z,66
2023-01-29T11:24:24.963Z,66
2023-01-29T11:29:22.343Z,65
2023-01-29T11:34:22.244Z,64
2023-01-29T11:39:23.378Z,65
2023-01-29T11:44:20.497Z,65
2023-01-29T11:49:21.746Z,64
2023-01-29T11:54:22.672Z,63
2023-01-29T11:59:05.029Z,62
2023-01-29T12:04:05.744Z,63
2023-01-29T12:09:05.538Z,62
2023-01-29T12:14:03.071Z,59
2023-01-29T12:19:02.903Z,58
2023-01-29T12:24:03.639Z,60
2023-01-29T12:29:03.206Z,58
2023-01-29T12:34:02.856Z,59
2023-01-29T12:39:02.821Z,59
2023-01-29T12:44:02.823Z,58
2023-01-29T12:49:02.975Z,60
2023-01-29T12:54:00.013Z,59
2023-01-29T12:58:59.601Z,60
2023-01-29T13:03:59.959Z,59
2023-01-29T13:08:59.687Z,57
2023-01-29T13:13:58.914Z,58
2023-01-29T13:18:58.037Z,57
2023-01-29T13:23:58.125Z,59
2023-01-29T13:28:57.309Z,59
2023-01-29T13:33:58.858Z,57
2023-01-29T13:38:54.809Z,59
2023-01-29T13:43:54.702Z,59
2023-01-29T13:48:54.587Z,59
2023-01-29T13:53:52.791Z,61
2023-01-29T13:58:51.456Z,61
2023-01-29T14:04:05.843Z,62
2023-01-29T14:08:50.277Z,62
2023-01-29T14:13:47.968Z,61
2023-01-29T14:18:48.434Z,61
2023-01-29T14:23:48.103Z,60
2023-01-29T14:28:48.980Z,60
2023-01-29T14:33:45.346Z,58
2023-01-29T14:38:45.027Z,59
2023-01-29T14:43:44.371Z,61
2023-01-29T14:48:44.038Z,61
2023-01-29T14:53:41.484Z,61
2023-01-29T14:58:40.773Z,62
2023-01-29T15:03:40.997Z,62
2023-01-29T15:08:40.292Z,63
2023-01-29T15:13:39.651Z,63
2023-01-29T15:18:39.308Z,64
2023-01-29T15:23:39.711Z,64
2023-01-29T15:28:38.591Z,64
2023-01-29T15:33:37.232Z,65
2023-01-29T15:38:37.173Z,65
2023-01-29T15:43:36.412Z,66
2023-01-29T15:48:34.179Z,66
2023-01-29T15:53:34.717Z,67
2023-01-29T15:58:33.646Z,68
2023-01-29T15:59:55.695Z,67
2023-01-29T16:04:54.754Z,68
2023-01-29T16:09:53.980Z,69
2023-01-29T16:14:54.195Z,69
2023-01-29T16:19:53.481Z,70
2023-01-29T16:24:54.654Z,70
2023-01-29T16:29:50.987Z,70
2023-01-29T16:34:50.788Z,70
2023-01-29T16:39:50.011Z,71
2023-01-29T16:44:49.741Z,71
2023-01-29T16:49:47.325Z,71
2023-01-29T16:54:47.214Z,71
2023-01-29T16:58:51.728Z,72
2023-01-29T17:03:51.751Z,73
2023-01-29T17:08:50.752Z,73
2023-01-29T17:13:50.618Z,74
2023-01-29T17:18:51.619Z,74
2023-01-29T17:23:48.398Z,75
2023-01-29T17:28:48.155Z,75
2023-01-29T17:33:48.167Z,75
2023-01-29T17:38:47.894Z,75
2023-01-29T17:43:46.891Z,76
2023-01-29T17:48:46.916Z,76
2023-01-29T17:53:47.802Z,76
2023-01-29T17:58:46.720Z,77
2023-01-29T18:03:43.974Z,77
2023-01-29T18:08:43.483Z,77
2023-01-29T18:13:43.460Z,78
2023-01-29T18:18:43.562Z,78
2023-01-29T18:23:42.769Z,79
2023-01-29T18:28:42.727Z,78
2023-01-29T18:33:42.155Z,78
2023-01-29T18:38:42.299Z,79
2023-01-29T18:43:42.725Z,78
2023-01-29T18:48:42.894Z,78
2023-01-29T18:53:39.897Z,78
2023-01-29T18:58:38.716Z,78
2023-01-29T18:59:59.785Z,78
2023-01-29T19:05:00.033Z,78
2023-01-29T19:09:59.308Z,79
2023-01-29T19:14:58.902Z,79
2023-01-29T19:19:58.175Z,80
2023-01-29T19:24:58.547Z,80
2023-01-29T19:29:57.543Z,80
2023-01-29T19:34:58.814Z,80
2023-01-29T19:39:55.087Z,80
2023-01-29T19:44:55.108Z,80
2023-01-29T19:49:54.304Z,81
2023-01-29T19:54:54.185Z,81
2023-01-29T19:59:14.966Z,81
2023-01-29T20:04:25.344Z,81
2023-01-29T20:09:24.857Z,82
2023-01-29T20:14:23.404Z,81
2023-01-29T20:19:23.478Z,81
2023-01-29T20:24:23.851Z,81
2023-01-29T20:29:22.640Z,81
2023-01-29T20:34:22.922Z,82
2023-01-29T20:39:22.983Z,82
2023-01-29T20:44:21.641Z,82
2023-01-29T20:49:21.619Z,82
2023-01-29T20:54:21.866Z,82
2023-01-29T20:59:02.714Z,83
2023-01-29T21:04:01.758Z,83
2023-01-29T21:09:01.475Z,83
2023-01-29T21:14:01.311Z,83
2023-01-29T21:19:02.011Z,83
2023-01-29T21:23:58.383Z,83
2023-01-29T21:28:58.063Z,83
2023-01-29T21:33:57.466Z,83
2023-01-29T21:38:57.020Z,83
2023-01-29T21:43:54.435Z,83
2023-01-29T21:48:55.067Z,83
2023-01-29T21:53:54.635Z,84
2023-01-29T21:58:55.547Z,84
2023-01-29T22:03:52.141Z,84
2023-01-29T22:08:52.036Z,84
2023-01-29T22:13:52.259Z,84
2023-01-29T22:18:50.828Z,84
2023-01-29T22:23:51.260Z,84
2023-01-29T22:28:51.206Z,84
2023-01-29T22:33:49.966Z,84
2023-01-29T22:38:49.939Z,84
2023-01-29T22:43:49.780Z,84
2023-01-29T22:48:49.403Z,85
2023-01-29T22:53:50.322Z,85
2023-01-29T22:58:46.690Z,85
2023-01-29T23:03:46.702Z,85
2023-01-29T23:08:45.935Z,85
2023-01-29T23:13:44.643Z,85
2023-01-29T23:18:44.140Z,85
2023-01-29T23:23:45.860Z,85
2023-01-29T23:28:43.742Z,85
2023-01-29T23:33:44.862Z,85
2023-01-29T23:38:41.356Z,85
2023-01-29T23:43:40.940Z,85
2023-01-29T23:48:40.393Z,85
2023-01-29T23:53:39.945Z,85
2023-01-29T23:58:37.593Z,85
